sensor_id;sensor_type;location;lat;lon;timestamp;pressure;altitude;pressure_sealevel;temperature;humidity
34328;BME280;20588;48.840;10.064;2024-03-22T00:00:56;97179.44;;;4.79;nan
34328;BME280;20588;48.840;10.064;2024-03-22T00:03:22;97177.19;;;4.76;nan
34328;BME280;20588;48.840;10.064;2024-03-22T00:05:48;97182.59;;;4.73;nan
34328;BME280;20588;48.840;10.064;2024-03-22T00:08:14;97179.09;;;4.66;nan
34328;BME280;20588;48.840;10.064;2024-03-22T00:10:40;97178.00;;;4.60;nan
34328;BME280;20588;48.840;10.064;2024-03-22T00:13:06;97171.75;;;4.55;nan
34328;BME280;20588;48.840;10.064;2024-03-22T00:15:32;97165.38;;;4.51;nan
34328;BME280;20588;48.840;10.064;2024-03-22T00:17:58;97163.28;;;4.46;nan
34328;BME280;20588;48.840;10.064;2024-03-22T00:20:25;97156.94;;;4.42;nan
34328;BME280;20588;48.840;10.064;2024-03-22T00:22:51;97155.63;;;4.38;nan
34328;BME280;20588;48.840;10.064;2024-03-22T00:25:17;97156.09;;;4.34;nan
34328;BME280;20588;48.840;10.064;2024-03-22T00:27:43;97149.06;;;4.28;nan
34328;BME280;20588;48.840;10.064;2024-03-22T00:30:09;97143.03;;;4.21;nan
34328;BME280;20588;48.840;10.064;2024-03-22T00:32:35;97149.50;;;4.15;nan
34328;BME280;20588;48.840;10.064;2024-03-22T00:35:01;97145.03;;;4.09;nan
34328;BME280;20588;48.840;10.064;2024-03-22T00:37:27;97142.78;;;4.06;nan
34328;BME280;20588;48.840;10.064;2024-03-22T00:39:53;97140.72;;;4.02;nan
34328;BME280;20588;48.840;10.064;2024-03-22T00:42:19;97135.91;;;3.99;nan
34328;BME280;20588;48.840;10.064;2024-03-22T00:44:45;97138.78;;;3.96;nan
34328;BME280;20588;48.840;10.064;2024-03-22T00:47:11;97135.09;;;3.90;nan
34328;BME280;20588;48.840;10.064;2024-03-22T00:49:37;97137.31;;;3.85;nan
34328;BME280;20588;48.840;10.064;2024-03-22T00:52:04;97128.69;;;3.78;nan
34328;BME280;20588;48.840;10.064;2024-03-22T00:54:30;97133.44;;;3.73;nan
34328;BME280;20588;48.840;10.064;2024-03-22T00:56:56;97129.75;;;3.67;nan
34328;BME280;20588;48.840;10.064;2024-03-22T00:59:22;97124.16;;;3.64;nan
34328;BME280;20588;48.840;10.064;2024-03-22T01:01:48;97117.00;;;3.59;nan
34328;BME280;20588;48.840;10.064;2024-03-22T01:04:14;97112.50;;;3.53;nan
34328;BME280;20588;48.840;10.064;2024-03-22T01:06:40;97104.38;;;3.50;nan
34328;BME280;20588;48.840;10.064;2024-03-22T01:09:07;97099.91;;;3.44;nan
34328;BME280;20588;48.840;10.064;2024-03-22T01:11:33;97100.34;;;3.39;nan
34328;BME280;20588;48.840;10.064;2024-03-22T01:13:59;97087.47;;;3.33;nan
34328;BME280;20588;48.840;10.064;2024-03-22T01:16:25;97090.59;;;3.27;nan
34328;BME280;20588;48.840;10.064;2024-03-22T01:18:51;97085.81;;;3.24;nan
34328;BME280;20588;48.840;10.064;2024-03-22T01:21:17;97087.06;;;3.20;nan
34328;BME280;20588;48.840;10.064;2024-03-22T01:23:43;97088.31;;;3.16;nan
34328;BME280;20588;48.840;10.064;2024-03-22T01:26:09;97082.25;;;3.09;nan
34328;BME280;20588;48.840;10.064;2024-03-22T01:28:35;97082.84;;;3.03;nan
34328;BME280;20588;48.840;10.064;2024-03-22T01:31:01;97081.38;;;3.00;nan
34328;BME280;20588;48.840;10.064;2024-03-22T01:33:27;97084.50;;;2.94;nan
34328;BME280;20588;48.840;10.064;2024-03-22T01:35:53;97079.88;;;2.90;nan
34328;BME280;20588;48.840;10.064;2024-03-22T01:38:19;97083.22;;;2.90;nan
34328;BME280;20588;48.840;10.064;2024-03-22T01:40:45;97083.50;;;2.87;nan
34328;BME280;20588;48.840;10.064;2024-03-22T01:43:11;97079.50;;;2.85;nan
34328;BME280;20588;48.840;10.064;2024-03-22T01:45:37;97079.03;;;2.81;nan
34328;BME280;20588;48.840;10.064;2024-03-22T01:48:04;97090.13;;;2.80;nan
34328;BME280;20588;48.840;10.064;2024-03-22T01:50:30;97091.38;;;2.76;nan
34328;BME280;20588;48.840;10.064;2024-03-22T01:52:56;97080.97;;;2.70;nan
34328;BME280;20588;48.840;10.064;2024-03-22T01:55:23;97083.97;;;2.65;nan
34328;BME280;20588;48.840;10.064;2024-03-22T01:57:52;97085.34;;;2.60;nan
34328;BME280;20588;48.840;10.064;2024-03-22T02:00:19;97082.31;;;2.56;nan
34328;BME280;20588;48.840;10.064;2024-03-22T02:02:45;97074.69;;;2.56;nan
34328;BME280;20588;48.840;10.064;2024-03-22T02:05:16;97079.00;;;2.56;nan
34328;BME280;20588;48.840;10.064;2024-03-22T02:07:45;97081.66;;;2.54;nan
34328;BME280;20588;48.840;10.064;2024-03-22T02:10:11;97078.31;;;2.54;nan
34328;BME280;20588;48.840;10.064;2024-03-22T02:12:38;97064.97;;;2.52;nan
34328;BME280;20588;48.840;10.064;2024-03-22T02:15:05;97071.44;;;2.46;nan
34328;BME280;20588;48.840;10.064;2024-03-22T02:17:33;97061.88;;;2.40;nan
34328;BME280;20588;48.840;10.064;2024-03-22T02:19:59;97063.13;;;2.36;nan
34328;BME280;20588;48.840;10.064;2024-03-22T02:22:26;97066.72;;;2.34;nan
34328;BME280;20588;48.840;10.064;2024-03-22T02:24:53;97061.00;;;2.32;nan
34328;BME280;20588;48.840;10.064;2024-03-22T02:27:19;97059.06;;;2.26;nan
34328;BME280;20588;48.840;10.064;2024-03-22T02:29:45;97056.81;;;2.23;nan
34328;BME280;20588;48.840;10.064;2024-03-22T02:32:11;97050.41;;;2.19;nan
34328;BME280;20588;48.840;10.064;2024-03-22T02:34:37;97047.34;;;2.15;nan
34328;BME280;20588;48.840;10.064;2024-03-22T02:37:04;97045.09;;;2.12;nan
34328;BME280;20588;48.840;10.064;2024-03-22T02:39:30;97044.47;;;2.10;nan
34328;BME280;20588;48.840;10.064;2024-03-22T02:41:56;97044.59;;;2.09;nan
34328;BME280;20588;48.840;10.064;2024-03-22T02:44:22;97037.78;;;2.09;nan
34328;BME280;20588;48.840;10.064;2024-03-22T02:46:48;97040.59;;;2.06;nan
34328;BME280;20588;48.840;10.064;2024-03-22T02:49:14;97036.63;;;2.04;nan
34328;BME280;20588;48.840;10.064;2024-03-22T02:51:40;97030.09;;;2.01;nan
34328;BME280;20588;48.840;10.064;2024-03-22T02:54:06;97019.59;;;1.96;nan
34328;BME280;20588;48.840;10.064;2024-03-22T02:56:33;97025.75;;;1.94;nan
34328;BME280;20588;48.840;10.064;2024-03-22T02:58:59;97032.56;;;1.93;nan
34328;BME280;20588;48.840;10.064;2024-03-22T03:01:25;97030.16;;;1.92;nan
34328;BME280;20588;48.840;10.064;2024-03-22T03:03:51;97030.31;;;1.90;nan
34328;BME280;20588;48.840;10.064;2024-03-22T03:06:17;97025.53;;;1.87;nan
34328;BME280;20588;48.840;10.064;2024-03-22T03:08:45;97019.78;;;1.85;nan
34328;BME280;20588;48.840;10.064;2024-03-22T03:11:13;97024.72;;;1.86;nan
34328;BME280;20588;48.840;10.064;2024-03-22T03:13:39;97015.53;;;1.85;nan
34328;BME280;20588;48.840;10.064;2024-03-22T03:16:06;97007.63;;;1.88;nan
34328;BME280;20588;48.840;10.064;2024-03-22T03:18:32;97008.16;;;1.92;nan
34328;BME280;20588;48.840;10.064;2024-03-22T03:20:58;97010.53;;;1.94;nan
34328;BME280;20588;48.840;10.064;2024-03-22T03:23:24;97008.63;;;1.96;nan
34328;BME280;20588;48.840;10.064;2024-03-22T03:25:50;97015.19;;;1.98;nan
34328;BME280;20588;48.840;10.064;2024-03-22T03:28:16;97009.28;;;1.98;nan
34328;BME280;20588;48.840;10.064;2024-03-22T03:30:42;97015.03;;;2.00;nan
34328;BME280;20588;48.840;10.064;2024-03-22T03:33:08;96995.50;;;2.00;nan
34328;BME280;20588;48.840;10.064;2024-03-22T03:35:34;97000.88;;;1.97;nan
34328;BME280;20588;48.840;10.064;2024-03-22T03:38:00;96984.06;;;1.96;nan
34328;BME280;20588;48.840;10.064;2024-03-22T03:40:26;96982.91;;;1.91;nan
34328;BME280;20588;48.840;10.064;2024-03-22T03:42:53;96972.09;;;1.88;nan
34328;BME280;20588;48.840;10.064;2024-03-22T03:45:19;96984.94;;;1.87;nan
34328;BME280;20588;48.840;10.064;2024-03-22T03:47:45;96980.16;;;1.84;nan
34328;BME280;20588;48.840;10.064;2024-03-22T03:50:12;96977.91;;;1.81;nan
34328;BME280;20588;48.840;10.064;2024-03-22T03:52:38;96978.34;;;1.76;nan
34328;BME280;20588;48.840;10.064;2024-03-22T03:55:04;96983.56;;;1.75;nan
34328;BME280;20588;48.840;10.064;2024-03-22T03:57:30;96976.25;;;1.72;nan
34328;BME280;20588;48.840;10.064;2024-03-22T03:59:56;96983.19;;;1.70;nan
34328;BME280;20588;48.840;10.064;2024-03-22T04:02:23;96977.19;;;1.71;nan
34328;BME280;20588;48.840;10.064;2024-03-22T04:04:52;96974.78;;;1.69;nan
34328;BME280;20588;48.840;10.064;2024-03-22T04:07:22;96976.66;;;1.67;nan
34328;BME280;20588;48.840;10.064;2024-03-22T04:09:48;96979.34;;;1.66;nan
34328;BME280;20588;48.840;10.064;2024-03-22T04:12:14;96990.28;;;1.66;nan
34328;BME280;20588;48.840;10.064;2024-03-22T04:14:40;96992.16;;;1.64;nan
34328;BME280;20588;48.840;10.064;2024-03-22T04:17:06;96994.84;;;1.63;nan
34328;BME280;20588;48.840;10.064;2024-03-22T04:19:32;96995.13;;;1.60;nan
34328;BME280;20588;48.840;10.064;2024-03-22T04:21:59;96996.84;;;1.59;nan
34328;BME280;20588;48.840;10.064;2024-03-22T04:24:25;96995.56;;;1.55;nan
34328;BME280;20588;48.840;10.064;2024-03-22T04:26:51;97000.91;;;1.52;nan
34328;BME280;20588;48.840;10.064;2024-03-22T04:29:17;97006.13;;;1.51;nan
34328;BME280;20588;48.840;10.064;2024-03-22T04:31:43;96997.72;;;1.50;nan
34328;BME280;20588;48.840;10.064;2024-03-22T04:34:09;97002.78;;;1.50;nan
34328;BME280;20588;48.840;10.064;2024-03-22T04:36:36;97008.66;;;1.51;nan
34328;BME280;20588;48.840;10.064;2024-03-22T04:39:02;97003.59;;;1.51;nan
34328;BME280;20588;48.840;10.064;2024-03-22T04:41:29;97002.63;;;1.52;nan
34328;BME280;20588;48.840;10.064;2024-03-22T04:43:55;96995.84;;;1.52;nan
34328;BME280;20588;48.840;10.064;2024-03-22T04:46:21;96999.34;;;1.51;nan
34328;BME280;20588;48.840;10.064;2024-03-22T04:48:47;96995.03;;;1.52;nan
34328;BME280;20588;48.840;10.064;2024-03-22T04:51:13;97002.78;;;1.50;nan
34328;BME280;20588;48.840;10.064;2024-03-22T04:53:39;96995.97;;;1.51;nan
34328;BME280;20588;48.840;10.064;2024-03-22T04:56:05;96991.59;;;1.53;nan
34328;BME280;20588;48.840;10.064;2024-03-22T04:58:33;96992.34;;;1.53;nan
34328;BME280;20588;48.840;10.064;2024-03-22T05:00:59;96997.44;;;1.53;nan
34328;BME280;20588;48.840;10.064;2024-03-22T05:03:25;96997.44;;;1.53;nan
34328;BME280;20588;48.840;10.064;2024-03-22T05:05:52;97006.94;;;1.51;nan
34328;BME280;20588;48.840;10.064;2024-03-22T05:08:19;97011.06;;;1.52;nan
34328;BME280;20588;48.840;10.064;2024-03-22T05:10:45;97003.59;;;1.51;nan
34328;BME280;20588;48.840;10.064;2024-03-22T05:13:11;97012.63;;;1.53;nan
34328;BME280;20588;48.840;10.064;2024-03-22T05:15:37;97008.53;;;1.52;nan
34328;BME280;20588;48.840;10.064;2024-03-22T05:18:04;97002.22;;;1.56;nan
34328;BME280;20588;48.840;10.064;2024-03-22T05:20:30;96993.41;;;1.60;nan
34328;BME280;20588;48.840;10.064;2024-03-22T05:22:56;96994.03;;;1.62;nan
34328;BME280;20588;48.840;10.064;2024-03-22T05:25:22;96988.53;;;1.67;nan
34328;BME280;20588;48.840;10.064;2024-03-22T05:27:48;96988.41;;;1.68;nan
34328;BME280;20588;48.840;10.064;2024-03-22T05:30:14;96984.28;;;1.67;nan
34328;BME280;20588;48.840;10.064;2024-03-22T05:32:41;96982.31;;;1.79;nan
34328;BME280;20588;48.840;10.064;2024-03-22T05:35:08;96984.41;;;1.83;nan
34328;BME280;20588;48.840;10.064;2024-03-22T05:37:34;96975.47;;;1.89;nan
34328;BME280;20588;48.840;10.064;2024-03-22T05:40:01;96974.06;;;1.95;nan
34328;BME280;20588;48.840;10.064;2024-03-22T05:42:29;96974.91;;;2.03;nan
34328;BME280;20588;48.840;10.064;2024-03-22T05:44:55;96970.59;;;2.13;nan
34328;BME280;20588;48.840;10.064;2024-03-22T05:47:22;96968.97;;;2.30;nan
34328;BME280;20588;48.840;10.064;2024-03-22T05:49:48;96961.88;;;2.59;nan
34328;BME280;20588;48.840;10.064;2024-03-22T05:52:14;96965.53;;;2.90;nan
34328;BME280;20588;48.840;10.064;2024-03-22T05:54:40;96960.94;;;3.35;nan
34328;BME280;20588;48.840;10.064;2024-03-22T05:57:07;96964.56;;;3.74;nan
34328;BME280;20588;48.840;10.064;2024-03-22T05:59:33;96957.44;;;4.10;nan
34328;BME280;20588;48.840;10.064;2024-03-22T06:02:00;96954.38;;;4.62;nan
34328;BME280;20588;48.840;10.064;2024-03-22T06:04:27;96954.44;;;5.39;nan
34328;BME280;20588;48.840;10.064;2024-03-22T06:06:53;96945.31;;;6.43;nan
34328;BME280;20588;48.840;10.064;2024-03-22T06:09:19;96941.56;;;7.62;nan
34328;BME280;20588;48.840;10.064;2024-03-22T06:12:00;96932.13;;;8.74;nan
34328;BME280;20588;48.840;10.064;2024-03-22T06:14:28;96932.97;;;9.76;nan
34328;BME280;20588;48.840;10.064;2024-03-22T06:16:54;96916.41;;;10.76;nan
34328;BME280;20588;48.840;10.064;2024-03-22T06:19:20;96913.44;;;11.43;nan
34328;BME280;20588;48.840;10.064;2024-03-22T06:21:46;96905.75;;;11.80;nan
34328;BME280;20588;48.840;10.064;2024-03-22T06:24:12;96912.84;;;12.40;nan
34328;BME280;20588;48.840;10.064;2024-03-22T06:26:38;96906.88;;;13.25;nan
34328;BME280;20588;48.840;10.064;2024-03-22T06:29:04;96905.19;;;14.19;nan
34328;BME280;20588;48.840;10.064;2024-03-22T06:31:31;96908.53;;;14.38;nan
34328;BME280;20588;48.840;10.064;2024-03-22T06:33:57;96900.75;;;14.49;nan
34328;BME280;20588;48.840;10.064;2024-03-22T06:36:29;96901.31;;;14.86;nan
34328;BME280;20588;48.840;10.064;2024-03-22T06:38:55;96908.94;;;16.11;nan
34328;BME280;20588;48.840;10.064;2024-03-22T06:41:22;96899.66;;;17.63;nan
34328;BME280;20588;48.840;10.064;2024-03-22T06:43:48;96905.50;;;18.33;nan
34328;BME280;20588;48.840;10.064;2024-03-22T06:46:14;96890.84;;;19.57;nan
34328;BME280;20588;48.840;10.064;2024-03-22T06:48:40;96900.31;;;21.18;nan
34328;BME280;20588;48.840;10.064;2024-03-22T06:51:06;96902.53;;;22.37;nan
34328;BME280;20588;48.840;10.064;2024-03-22T06:53:32;96898.03;;;23.00;nan
34328;BME280;20588;48.840;10.064;2024-03-22T06:55:58;96889.63;;;23.69;nan
34328;BME280;20588;48.840;10.064;2024-03-22T06:58:24;96889.50;;;25.07;nan
34328;BME280;20588;48.840;10.064;2024-03-22T07:00:51;96894.34;;;26.39;nan
34328;BME280;20588;48.840;10.064;2024-03-22T07:03:17;96893.81;;;27.03;nan
34328;BME280;20588;48.840;10.064;2024-03-22T07:05:43;96880.69;;;28.02;nan
34328;BME280;20588;48.840;10.064;2024-03-22T07:08:09;96885.56;;;28.80;nan
34328;BME280;20588;48.840;10.064;2024-03-22T07:10:39;96876.41;;;29.44;nan
34328;BME280;20588;48.840;10.064;2024-03-22T07:13:05;96874.72;;;28.48;nan
34328;BME280;20588;48.840;10.064;2024-03-22T07:15:31;96866.47;;;27.16;nan
34328;BME280;20588;48.840;10.064;2024-03-22T07:17:58;96870.19;;;25.12;nan
34328;BME280;20588;48.840;10.064;2024-03-22T07:20:25;96874.41;;;22.76;nan
34328;BME280;20588;48.840;10.064;2024-03-22T07:22:51;96869.09;;;21.32;nan
34328;BME280;20588;48.840;10.064;2024-03-22T07:25:18;96871.31;;;20.80;nan
34328;BME280;20588;48.840;10.064;2024-03-22T07:27:44;96866.88;;;21.54;nan
34328;BME280;20588;48.840;10.064;2024-03-22T07:30:10;96860.72;;;23.69;nan
34328;BME280;20588;48.840;10.064;2024-03-22T07:32:36;96872.75;;;25.44;nan
34328;BME280;20588;48.840;10.064;2024-03-22T07:35:03;96863.50;;;26.04;nan
34328;BME280;20588;48.840;10.064;2024-03-22T07:37:29;96869.53;;;27.01;nan
34328;BME280;20588;48.840;10.064;2024-03-22T07:39:55;96867.38;;;27.76;nan
34328;BME280;20588;48.840;10.064;2024-03-22T07:42:22;96856.94;;;28.48;nan
34328;BME280;20588;48.840;10.064;2024-03-22T07:44:48;96857.88;;;28.98;nan
34328;BME280;20588;48.840;10.064;2024-03-22T07:47:14;96858.25;;;28.88;nan
34328;BME280;20588;48.840;10.064;2024-03-22T07:49:40;96853.31;;;28.70;nan
34328;BME280;20588;48.840;10.064;2024-03-22T07:52:06;96859.03;;;28.00;nan
34328;BME280;20588;48.840;10.064;2024-03-22T07:54:32;96850.31;;;27.18;nan
34328;BME280;20588;48.840;10.064;2024-03-22T07:56:58;96850.69;;;26.11;nan
34328;BME280;20588;48.840;10.064;2024-03-22T07:59:24;96856.91;;;25.30;nan
34328;BME280;20588;48.840;10.064;2024-03-22T08:01:51;96854.59;;;25.02;nan
34328;BME280;20588;48.840;10.064;2024-03-22T08:04:17;96856.81;;;24.81;nan
34328;BME280;20588;48.840;10.064;2024-03-22T08:06:43;96852.63;;;25.21;nan
34328;BME280;20588;48.840;10.064;2024-03-22T08:09:09;96857.84;;;25.75;nan
34328;BME280;20588;48.840;10.064;2024-03-22T08:11:35;96853.97;;;26.38;nan
34328;BME280;20588;48.840;10.064;2024-03-22T08:14:01;96849.53;;;26.48;nan
34328;BME280;20588;48.840;10.064;2024-03-22T08:16:30;96848.16;;;26.50;nan
34328;BME280;20588;48.840;10.064;2024-03-22T08:18:56;96848.81;;;26.33;nan
34328;BME280;20588;48.840;10.064;2024-03-22T08:21:23;96857.16;;;26.27;nan
34328;BME280;20588;48.840;10.064;2024-03-22T08:23:50;96852.53;;;27.33;nan
34328;BME280;20588;48.840;10.064;2024-03-22T08:26:17;96842.34;;;29.46;nan
34328;BME280;20588;48.840;10.064;2024-03-22T08:28:44;96846.06;;;30.93;nan
34328;BME280;20588;48.840;10.064;2024-03-22T08:31:11;96842.81;;;31.99;nan
34328;BME280;20588;48.840;10.064;2024-03-22T08:33:37;96846.75;;;30.69;nan
34328;BME280;20588;48.840;10.064;2024-03-22T08:36:03;96833.44;;;28.93;nan
34328;BME280;20588;48.840;10.064;2024-03-22T08:38:29;96836.25;;;27.56;nan
34328;BME280;20588;48.840;10.064;2024-03-22T08:40:55;96827.56;;;28.07;nan
34328;BME280;20588;48.840;10.064;2024-03-22T08:43:21;96836.59;;;30.06;nan
34328;BME280;20588;48.840;10.064;2024-03-22T08:45:55;96826.00;;;32.38;nan
34328;BME280;20588;48.840;10.064;2024-03-22T08:48:21;96822.81;;;33.26;nan
34328;BME280;20588;48.840;10.064;2024-03-22T08:50:47;96824.91;;;33.01;nan
34328;BME280;20588;48.840;10.064;2024-03-22T08:53:13;96818.69;;;32.35;nan
34328;BME280;20588;48.840;10.064;2024-03-22T08:55:48;96819.94;;;31.98;nan
34328;BME280;20588;48.840;10.064;2024-03-22T08:58:15;96823.78;;;33.18;nan
34328;BME280;20588;48.840;10.064;2024-03-22T09:00:43;96814.66;;;34.49;nan
34328;BME280;20588;48.840;10.064;2024-03-22T09:03:09;96802.63;;;35.63;nan
34328;BME280;20588;48.840;10.064;2024-03-22T09:05:35;96799.13;;;35.88;nan
34328;BME280;20588;48.840;10.064;2024-03-22T09:08:02;96795.69;;;35.88;nan
34328;BME280;20588;48.840;10.064;2024-03-22T09:10:29;96805.53;;;35.51;nan
34328;BME280;20588;48.840;10.064;2024-03-22T09:12:56;96797.81;;;34.71;nan
34328;BME280;20588;48.840;10.064;2024-03-22T09:15:22;96800.44;;;32.84;nan
34328;BME280;20588;48.840;10.064;2024-03-22T09:17:48;96795.16;;;31.18;nan
34328;BME280;20588;48.840;10.064;2024-03-22T09:20:14;96793.50;;;30.01;nan
34328;BME280;20588;48.840;10.064;2024-03-22T09:22:40;96785.41;;;29.85;nan
34328;BME280;20588;48.840;10.064;2024-03-22T09:25:07;96793.94;;;29.91;nan
34328;BME280;20588;48.840;10.064;2024-03-22T09:27:33;96784.66;;;29.55;nan
34328;BME280;20588;48.840;10.064;2024-03-22T09:29:59;96788.06;;;29.44;nan
34328;BME280;20588;48.840;10.064;2024-03-22T09:32:27;96779.41;;;29.26;nan
34328;BME280;20588;48.840;10.064;2024-03-22T09:34:53;96781.44;;;29.50;nan
34328;BME280;20588;48.840;10.064;2024-03-22T09:37:19;96778.66;;;29.88;nan
34328;BME280;20588;48.840;10.064;2024-03-22T09:39:45;96789.22;;;30.41;nan
34328;BME280;20588;48.840;10.064;2024-03-22T09:42:16;96782.09;;;30.21;nan
34328;BME280;20588;48.840;10.064;2024-03-22T09:44:49;96781.84;;;30.14;nan
34328;BME280;20588;48.840;10.064;2024-03-22T09:47:17;96777.31;;;29.82;nan
34328;BME280;20588;48.840;10.064;2024-03-22T09:49:44;96776.28;;;29.53;nan
34328;BME280;20588;48.840;10.064;2024-03-22T09:52:13;96769.22;;;29.57;nan
34328;BME280;20588;48.840;10.064;2024-03-22T09:54:42;96768.16;;;29.29;nan
34328;BME280;20588;48.840;10.064;2024-03-22T09:57:14;96764.69;;;29.37;nan
34328;BME280;20588;48.840;10.064;2024-03-22T09:59:44;96755.09;;;29.45;nan
34328;BME280;20588;48.840;10.064;2024-03-22T10:02:12;96760.53;;;29.07;nan
34328;BME280;20588;48.840;10.064;2024-03-22T10:04:41;96751.00;;;28.77;nan
34328;BME280;20588;48.840;10.064;2024-03-22T10:07:08;96746.66;;;28.73;nan
34328;BME280;20588;48.840;10.064;2024-03-22T10:09:36;96740.31;;;28.65;nan
34328;BME280;20588;48.840;10.064;2024-03-22T10:12:03;96731.19;;;28.46;nan
34328;BME280;20588;48.840;10.064;2024-03-22T10:14:30;96731.28;;;28.20;nan
34328;BME280;20588;48.840;10.064;2024-03-22T10:16:57;96722.69;;;28.23;nan
34328;BME280;20588;48.840;10.064;2024-03-22T10:19:23;96729.09;;;28.60;nan
34328;BME280;20588;48.840;10.064;2024-03-22T10:22:03;96722.00;;;29.01;nan
34328;BME280;20588;48.840;10.064;2024-03-22T10:24:30;96715.19;;;29.41;nan
34328;BME280;20588;48.840;10.064;2024-03-22T10:26:56;96717.19;;;29.44;nan
34328;BME280;20588;48.840;10.064;2024-03-22T10:29:23;96704.31;;;29.55;nan
34328;BME280;20588;48.840;10.064;2024-03-22T10:31:54;96698.41;;;29.49;nan
34328;BME280;20588;48.840;10.064;2024-03-22T10:34:22;96702.31;;;29.31;nan
34328;BME280;20588;48.840;10.064;2024-03-22T10:36:49;96704.97;;;29.31;nan
34328;BME280;20588;48.840;10.064;2024-03-22T10:39:18;96698.47;;;29.20;nan
34328;BME280;20588;48.840;10.064;2024-03-22T10:41:46;96695.34;;;28.98;nan
34328;BME280;20588;48.840;10.064;2024-03-22T10:44:12;96688.56;;;28.88;nan
34328;BME280;20588;48.840;10.064;2024-03-22T10:46:38;96689.38;;;29.09;nan
34328;BME280;20588;48.840;10.064;2024-03-22T10:49:08;96687.81;;;29.08;nan
34328;BME280;20588;48.840;10.064;2024-03-22T10:51:36;96685.81;;;29.05;nan
34328;BME280;20588;48.840;10.064;2024-03-22T10:54:03;96682.16;;;28.89;nan
34328;BME280;20588;48.840;10.064;2024-03-22T10:56:31;96680.50;;;29.05;nan
34328;BME280;20588;48.840;10.064;2024-03-22T10:59:02;96673.06;;;28.99;nan
34328;BME280;20588;48.840;10.064;2024-03-22T11:01:31;96676.28;;;28.84;nan
34328;BME280;20588;48.840;10.064;2024-03-22T11:04:06;96662.97;;;28.92;nan
34328;BME280;20588;48.840;10.064;2024-03-22T11:06:32;96664.25;;;28.86;nan
34328;BME280;20588;48.840;10.064;2024-03-22T11:09:00;96657.66;;;28.92;nan
34328;BME280;20588;48.840;10.064;2024-03-22T11:11:28;96659.66;;;28.95;nan
34328;BME280;20588;48.840;10.064;2024-03-22T11:14:03;96651.88;;;28.90;nan
34328;BME280;20588;48.840;10.064;2024-03-22T11:16:30;96644.75;;;28.62;nan
34328;BME280;20588;48.840;10.064;2024-03-22T11:18:56;96640.44;;;28.57;nan
34328;BME280;20588;48.840;10.064;2024-03-22T11:21:22;96629.88;;;28.78;nan
34328;BME280;20588;48.840;10.064;2024-03-22T11:23:49;96623.38;;;28.87;nan
34328;BME280;20588;48.840;10.064;2024-03-22T11:26:15;96619.69;;;28.59;nan
34328;BME280;20588;48.840;10.064;2024-03-22T11:28:42;96617.50;;;28.82;nan
34328;BME280;20588;48.840;10.064;2024-03-22T11:31:08;96618.28;;;28.82;nan
34328;BME280;20588;48.840;10.064;2024-03-22T11:33:34;96616.28;;;29.00;nan
34328;BME280;20588;48.840;10.064;2024-03-22T11:36:01;96616.88;;;29.05;nan
34328;BME280;20588;48.840;10.064;2024-03-22T11:38:28;96607.53;;;29.20;nan
34328;BME280;20588;48.840;10.064;2024-03-22T11:40:57;96603.03;;;29.32;nan
34328;BME280;20588;48.840;10.064;2024-03-22T11:43:24;96593.91;;;29.09;nan
34328;BME280;20588;48.840;10.064;2024-03-22T11:45:50;96593.63;;;29.02;nan
34328;BME280;20588;48.840;10.064;2024-03-22T11:48:16;96592.66;;;29.27;nan
34328;BME280;20588;48.840;10.064;2024-03-22T11:50:43;96587.50;;;29.43;nan
34328;BME280;20588;48.840;10.064;2024-03-22T11:53:09;96588.53;;;29.50;nan
34328;BME280;20588;48.840;10.064;2024-03-22T11:55:36;96577.78;;;29.47;nan
34328;BME280;20588;48.840;10.064;2024-03-22T11:58:02;96573.81;;;29.53;nan
34328;BME280;20588;48.840;10.064;2024-03-22T12:00:29;96572.94;;;29.49;nan
34328;BME280;20588;48.840;10.064;2024-03-22T12:02:55;96572.31;;;29.64;nan
34328;BME280;20588;48.840;10.064;2024-03-22T12:05:21;96568.63;;;29.56;nan
34328;BME280;20588;48.840;10.064;2024-03-22T12:07:47;96570.75;;;29.63;nan
34328;BME280;20588;48.840;10.064;2024-03-22T12:10:13;96564.19;;;29.48;nan
34328;BME280;20588;48.840;10.064;2024-03-22T12:12:40;96560.53;;;28.88;nan
34328;BME280;20588;48.840;10.064;2024-03-22T12:15:06;96563.59;;;28.28;nan
34328;BME280;20588;48.840;10.064;2024-03-22T12:17:32;96560.63;;;28.09;nan
34328;BME280;20588;48.840;10.064;2024-03-22T12:20:00;96546.13;;;27.69;nan
34328;BME280;20588;48.840;10.064;2024-03-22T12:22:26;96549.06;;;27.30;nan
34328;BME280;20588;48.840;10.064;2024-03-22T12:24:52;96538.97;;;27.32;nan
34328;BME280;20588;48.840;10.064;2024-03-22T12:27:18;96531.50;;;27.25;nan
34328;BME280;20588;48.840;10.064;2024-03-22T12:29:44;96520.63;;;27.10;nan
34328;BME280;20588;48.840;10.064;2024-03-22T12:32:10;96523.66;;;26.74;nan
34328;BME280;20588;48.840;10.064;2024-03-22T12:34:36;96523.16;;;26.38;nan
34328;BME280;20588;48.840;10.064;2024-03-22T12:37:03;96521.44;;;26.08;nan
34328;BME280;20588;48.840;10.064;2024-03-22T12:39:29;96513.00;;;25.97;nan
34328;BME280;20588;48.840;10.064;2024-03-22T12:41:55;96506.34;;;26.00;nan
34328;BME280;20588;48.840;10.064;2024-03-22T12:44:21;96504.50;;;26.17;nan
34328;BME280;20588;48.840;10.064;2024-03-22T12:46:48;96502.19;;;26.33;nan
34328;BME280;20588;48.840;10.064;2024-03-22T12:49:14;96501.41;;;26.24;nan
34328;BME280;20588;48.840;10.064;2024-03-22T12:51:41;96499.22;;;26.09;nan
34328;BME280;20588;48.840;10.064;2024-03-22T12:54:08;96491.63;;;26.07;nan
34328;BME280;20588;48.840;10.064;2024-03-22T12:56:34;96488.66;;;26.09;nan
34328;BME280;20588;48.840;10.064;2024-03-22T12:59:00;96481.84;;;26.08;nan
34328;BME280;20588;48.840;10.064;2024-03-22T13:01:26;96478.78;;;25.75;nan
34328;BME280;20588;48.840;10.064;2024-03-22T13:03:52;96477.19;;;25.57;nan
34328;BME280;20588;48.840;10.064;2024-03-22T13:06:19;96464.84;;;25.36;nan
34328;BME280;20588;48.840;10.064;2024-03-22T13:08:45;96462.88;;;25.11;nan
34328;BME280;20588;48.840;10.064;2024-03-22T13:11:11;96451.84;;;24.78;nan